Main page


Airports :

Nassau, The Bahamas

Lynden Pindling International Airport

latitude: 25-03N, longitude: 077-28W, elevation: 3 m

Current weather observation

The report was made 1 hour and 27 minutes ago, at 22:00 UTC
Wind 6 kt from the Northwest
Temperature 24°C
Humidity 47%
Pressure 1020 hPa
Visibility 10 km or more
Scattered clouds at a height of 2200 ft

METAR: MYNN 222200Z 32006KT 9999 SCT022 24/12 A3013

Time: 19:27 (23:27 UTC)


The report was made 7 hours and 27 minutes ago, at 16:00 UTC
Forecast valid from 22 at 18 UTC to 23 at 18 UTC
Wind 12 kt from the North/Northwest
Visibility 10 km or more
Scattered clouds at a height of 2500 ft

TAF: MYNN 221600Z 2218/2318 33012KT 9999 SCT025

Weather observations and forecasts of more than 4000 airports (METAR and TAF reports).

The available stations are represented by yellow and red dots on the map.

Hover mouse over dot to see the name of the station.

Then click to see weather observations and forecasts.

To change the map : click on the green buttons with a black cross to zoom in, on the green button with a dash to zoom out, or on the green arrows for adjacent maps.